sensor_id;sensor_type;location;lat;lon;timestamp;P1;durP1;ratioP1;P2;durP2;ratioP2
51298;SDS011;37382;45.192;9.790;2023-06-22T00:01:22;34.85;;;12.98;;
51298;SDS011;37382;45.192;9.790;2023-06-22T00:03:50;29.02;;;13.20;;
51298;SDS011;37382;45.192;9.790;2023-06-22T00:06:18;22.60;;;12.95;;
51298;SDS011;37382;45.192;9.790;2023-06-22T00:08:45;24.80;;;14.15;;
51298;SDS011;37382;45.192;9.790;2023-06-22T00:11:13;23.55;;;13.05;;
51298;SDS011;37382;45.192;9.790;2023-06-22T00:13:40;36.85;;;15.52;;
51298;SDS011;37382;45.192;9.790;2023-06-22T00:16:08;30.92;;;14.68;;
51298;SDS011;37382;45.192;9.790;2023-06-22T00:18:35;28.10;;;15.18;;
51298;SDS011;37382;45.192;9.790;2023-06-22T00:21:03;34.67;;;14.57;;
51298;SDS011;37382;45.192;9.790;2023-06-22T00:23:31;27.10;;;14.18;;
51298;SDS011;37382;45.192;9.790;2023-06-22T00:26:02;25.70;;;14.38;;
51298;SDS011;37382;45.192;9.790;2023-06-22T00:28:29;34.30;;;14.98;;
51298;SDS011;37382;45.192;9.790;2023-06-22T00:30:57;27.60;;;14.00;;
51298;SDS011;37382;45.192;9.790;2023-06-22T00:33:25;26.00;;;15.23;;
51298;SDS011;37382;45.192;9.790;2023-06-22T00:35:53;23.02;;;14.50;;
51298;SDS011;37382;45.192;9.790;2023-06-22T00:38:21;29.10;;;15.00;;
51298;SDS011;37382;45.192;9.790;2023-06-22T00:40:49;27.95;;;16.88;;
51298;SDS011;37382;45.192;9.790;2023-06-22T00:43:16;28.58;;;16.42;;
51298;SDS011;37382;45.192;9.790;2023-06-22T00:45:44;19.95;;;15.15;;
51298;SDS011;37382;45.192;9.790;2023-06-22T00:48:11;23.90;;;15.35;;
51298;SDS011;37382;45.192;9.790;2023-06-22T00:50:39;40.33;;;16.70;;
51298;SDS011;37382;45.192;9.790;2023-06-22T00:53:08;27.90;;;16.25;;
51298;SDS011;37382;45.192;9.790;2023-06-22T00:55:41;26.65;;;17.65;;
51298;SDS011;37382;45.192;9.790;2023-06-22T00:58:11;24.20;;;16.95;;
51298;SDS011;37382;45.192;9.790;2023-06-22T01:00:41;23.83;;;17.40;;
51298;SDS011;37382;45.192;9.790;2023-06-22T01:03:09;28.95;;;18.42;;
51298;SDS011;37382;45.192;9.790;2023-06-22T01:05:38;28.45;;;16.88;;
51298;SDS011;37382;45.192;9.790;2023-06-22T01:08:21;28.63;;;17.25;;
51298;SDS011;37382;45.192;9.790;2023-06-22T01:11:19;28.13;;;18.33;;
51298;SDS011;37382;45.192;9.790;2023-06-22T01:16:30;24.98;;;16.77;;
51298;SDS011;37382;45.192;9.790;2023-06-22T01:19:00;29.60;;;17.10;;
51298;SDS011;37382;45.192;9.790;2023-06-22T01:21:32;25.60;;;17.13;;
51298;SDS011;37382;45.192;9.790;2023-06-22T01:26:37;21.63;;;17.38;;
51298;SDS011;37382;45.192;9.790;2023-06-22T01:29:10;35.10;;;16.33;;
51298;SDS011;37382;45.192;9.790;2023-06-22T01:31:41;26.95;;;15.23;;
51298;SDS011;37382;45.192;9.790;2023-06-22T01:34:11;25.75;;;13.98;;
51298;SDS011;37382;45.192;9.790;2023-06-22T01:36:40;26.33;;;14.77;;
51298;SDS011;37382;45.192;9.790;2023-06-22T01:39:08;23.20;;;14.77;;
51298;SDS011;37382;45.192;9.790;2023-06-22T01:41:37;19.48;;;14.73;;
51298;SDS011;37382;45.192;9.790;2023-06-22T01:44:05;22.15;;;14.82;;
51298;SDS011;37382;45.192;9.790;2023-06-22T01:46:35;24.02;;;14.07;;
51298;SDS011;37382;45.192;9.790;2023-06-22T01:49:04;25.98;;;14.35;;
51298;SDS011;37382;45.192;9.790;2023-06-22T01:51:33;19.92;;;13.02;;
51298;SDS011;37382;45.192;9.790;2023-06-22T01:54:01;20.30;;;12.95;;
51298;SDS011;37382;45.192;9.790;2023-06-22T01:56:29;29.77;;;13.23;;
51298;SDS011;37382;45.192;9.790;2023-06-22T01:59:21;20.00;;;12.35;;
51298;SDS011;37382;45.192;9.790;2023-06-22T02:02:02;18.25;;;12.05;;
51298;SDS011;37382;45.192;9.790;2023-06-22T02:04:56;18.05;;;11.15;;
51298;SDS011;37382;45.192;9.790;2023-06-22T02:07:34;23.25;;;10.95;;
51298;SDS011;37382;45.192;9.790;2023-06-22T02:10:24;21.13;;;11.13;;
51298;SDS011;37382;45.192;9.790;2023-06-22T02:12:57;19.58;;;10.35;;
51298;SDS011;37382;45.192;9.790;2023-06-22T02:15:26;18.13;;;9.25;;
51298;SDS011;37382;45.192;9.790;2023-06-22T02:17:55;13.40;;;10.20;;
51298;SDS011;37382;45.192;9.790;2023-06-22T02:20:23;19.58;;;9.32;;
51298;SDS011;37382;45.192;9.790;2023-06-22T02:22:51;13.30;;;9.65;;
51298;SDS011;37382;45.192;9.790;2023-06-22T02:25:19;15.50;;;9.93;;
51298;SDS011;37382;45.192;9.790;2023-06-22T02:27:46;10.68;;;9.23;;
51298;SDS011;37382;45.192;9.790;2023-06-22T02:30:17;18.15;;;9.48;;
51298;SDS011;37382;45.192;9.790;2023-06-22T02:32:45;19.00;;;10.00;;
51298;SDS011;37382;45.192;9.790;2023-06-22T02:35:15;11.85;;;9.40;;
51298;SDS011;37382;45.192;9.790;2023-06-22T02:37:42;21.30;;;10.25;;
51298;SDS011;37382;45.192;9.790;2023-06-22T02:40:10;23.33;;;9.60;;
51298;SDS011;37382;45.192;9.790;2023-06-22T02:42:38;13.20;;;9.15;;
51298;SDS011;37382;45.192;9.790;2023-06-22T02:45:07;12.27;;;9.13;;
51298;SDS011;37382;45.192;9.790;2023-06-22T02:47:35;13.15;;;9.80;;
51298;SDS011;37382;45.192;9.790;2023-06-22T02:50:02;12.15;;;8.90;;
51298;SDS011;37382;45.192;9.790;2023-06-22T02:52:33;15.97;;;9.47;;
51298;SDS011;37382;45.192;9.790;2023-06-22T02:55:01;14.68;;;9.68;;
51298;SDS011;37382;45.192;9.790;2023-06-22T02:57:29;13.65;;;9.60;;
51298;SDS011;37382;45.192;9.790;2023-06-22T02:59:57;16.23;;;9.50;;
51298;SDS011;37382;45.192;9.790;2023-06-22T03:02:25;13.48;;;9.20;;
51298;SDS011;37382;45.192;9.790;2023-06-22T03:04:53;16.73;;;8.88;;
51298;SDS011;37382;45.192;9.790;2023-06-22T03:07:21;15.27;;;9.05;;
51298;SDS011;37382;45.192;9.790;2023-06-22T03:09:51;16.90;;;8.70;;
51298;SDS011;37382;45.192;9.790;2023-06-22T03:12:19;12.10;;;8.98;;
51298;SDS011;37382;45.192;9.790;2023-06-22T03:14:51;19.27;;;9.82;;
51298;SDS011;37382;45.192;9.790;2023-06-22T03:17:19;12.65;;;10.10;;
51298;SDS011;37382;45.192;9.790;2023-06-22T03:19:46;15.32;;;9.10;;
51298;SDS011;37382;45.192;9.790;2023-06-22T03:22:14;13.10;;;9.07;;
51298;SDS011;37382;45.192;9.790;2023-06-22T03:24:42;16.75;;;9.27;;
51298;SDS011;37382;45.192;9.790;2023-06-22T03:27:10;11.95;;;10.13;;
51298;SDS011;37382;45.192;9.790;2023-06-22T03:29:37;22.02;;;9.98;;
51298;SDS011;37382;45.192;9.790;2023-06-22T03:32:05;19.85;;;8.70;;
51298;SDS011;37382;45.192;9.790;2023-06-22T03:34:33;12.00;;;9.35;;
51298;SDS011;37382;45.192;9.790;2023-06-22T03:37:03;16.33;;;9.35;;
51298;SDS011;37382;45.192;9.790;2023-06-22T03:39:31;14.90;;;8.85;;
51298;SDS011;37382;45.192;9.790;2023-06-22T03:41:58;13.95;;;8.20;;
51298;SDS011;37382;45.192;9.790;2023-06-22T03:44:26;12.27;;;8.20;;
51298;SDS011;37382;45.192;9.790;2023-06-22T03:46:54;19.48;;;8.55;;
51298;SDS011;37382;45.192;9.790;2023-06-22T03:49:22;29.33;;;8.93;;
51298;SDS011;37382;45.192;9.790;2023-06-22T03:51:49;48.78;;;11.52;;
51298;SDS011;37382;45.192;9.790;2023-06-22T03:54:17;42.10;;;10.80;;
51298;SDS011;37382;45.192;9.790;2023-06-22T03:56:44;20.73;;;12.05;;
51298;SDS011;37382;45.192;9.790;2023-06-22T03:59:12;36.13;;;15.18;;
51298;SDS011;37382;45.192;9.790;2023-06-22T04:01:39;27.55;;;15.18;;
51298;SDS011;37382;45.192;9.790;2023-06-22T04:04:07;30.38;;;14.00;;
51298;SDS011;37382;45.192;9.790;2023-06-22T04:06:35;23.77;;;16.63;;
51298;SDS011;37382;45.192;9.790;2023-06-22T04:09:03;34.97;;;17.30;;
51298;SDS011;37382;45.192;9.790;2023-06-22T04:11:30;28.77;;;17.60;;
51298;SDS011;37382;45.192;9.790;2023-06-22T04:13:57;26.88;;;15.48;;
51298;SDS011;37382;45.192;9.790;2023-06-22T04:16:24;26.02;;;15.00;;
51298;SDS011;37382;45.192;9.790;2023-06-22T04:18:52;21.65;;;14.55;;
51298;SDS011;37382;45.192;9.790;2023-06-22T04:21:19;21.90;;;12.93;;
51298;SDS011;37382;45.192;9.790;2023-06-22T04:23:47;22.73;;;14.10;;
51298;SDS011;37382;45.192;9.790;2023-06-22T04:26:14;33.92;;;14.35;;
51298;SDS011;37382;45.192;9.790;2023-06-22T04:28:42;17.88;;;12.65;;
51298;SDS011;37382;45.192;9.790;2023-06-22T04:31:09;24.10;;;14.02;;
51298;SDS011;37382;45.192;9.790;2023-06-22T04:33:38;21.98;;;13.98;;
51298;SDS011;37382;45.192;9.790;2023-06-22T04:36:07;20.60;;;14.07;;
51298;SDS011;37382;45.192;9.790;2023-06-22T04:38:34;21.40;;;13.10;;
51298;SDS011;37382;45.192;9.790;2023-06-22T04:41:02;25.38;;;12.85;;
51298;SDS011;37382;45.192;9.790;2023-06-22T04:43:30;26.00;;;13.98;;
51298;SDS011;37382;45.192;9.790;2023-06-22T04:45:58;33.80;;;11.63;;
51298;SDS011;37382;45.192;9.790;2023-06-22T04:48:31;17.08;;;13.60;;
51298;SDS011;37382;45.192;9.790;2023-06-22T04:51:00;22.38;;;13.00;;
51298;SDS011;37382;45.192;9.790;2023-06-22T04:53:31;16.95;;;11.60;;
51298;SDS011;37382;45.192;9.790;2023-06-22T04:55:59;22.38;;;11.88;;
51298;SDS011;37382;45.192;9.790;2023-06-22T04:58:27;16.90;;;11.75;;
51298;SDS011;37382;45.192;9.790;2023-06-22T05:00:56;14.80;;;11.25;;
51298;SDS011;37382;45.192;9.790;2023-06-22T05:03:25;16.13;;;10.27;;
51298;SDS011;37382;45.192;9.790;2023-06-22T05:05:53;20.50;;;9.75;;
51298;SDS011;37382;45.192;9.790;2023-06-22T05:08:21;14.40;;;9.85;;
51298;SDS011;37382;45.192;9.790;2023-06-22T05:10:48;16.67;;;10.05;;
51298;SDS011;37382;45.192;9.790;2023-06-22T05:13:31;22.35;;;10.85;;
51298;SDS011;37382;45.192;9.790;2023-06-22T05:15:59;21.42;;;10.43;;
51298;SDS011;37382;45.192;9.790;2023-06-22T05:18:30;24.15;;;11.35;;
51298;SDS011;37382;45.192;9.790;2023-06-22T05:20:58;20.38;;;10.85;;
51298;SDS011;37382;45.192;9.790;2023-06-22T05:23:26;32.58;;;11.45;;
51298;SDS011;37382;45.192;9.790;2023-06-22T05:25:54;21.13;;;11.57;;
51298;SDS011;37382;45.192;9.790;2023-06-22T05:28:24;27.85;;;12.15;;
51298;SDS011;37382;45.192;9.790;2023-06-22T05:30:52;24.33;;;11.52;;
51298;SDS011;37382;45.192;9.790;2023-06-22T05:33:19;21.55;;;11.35;;
51298;SDS011;37382;45.192;9.790;2023-06-22T05:35:47;21.40;;;10.32;;
51298;SDS011;37382;45.192;9.790;2023-06-22T05:38:15;20.35;;;11.50;;
51298;SDS011;37382;45.192;9.790;2023-06-22T05:40:42;21.58;;;11.85;;
51298;SDS011;37382;45.192;9.790;2023-06-22T05:43:10;24.77;;;12.23;;
51298;SDS011;37382;45.192;9.790;2023-06-22T05:45:37;22.27;;;11.02;;
51298;SDS011;37382;45.192;9.790;2023-06-22T05:48:05;29.65;;;11.55;;
51298;SDS011;37382;45.192;9.790;2023-06-22T05:50:32;18.95;;;11.43;;
51298;SDS011;37382;45.192;9.790;2023-06-22T05:53:00;18.60;;;10.60;;
51298;SDS011;37382;45.192;9.790;2023-06-22T05:55:27;22.55;;;9.25;;
51298;SDS011;37382;45.192;9.790;2023-06-22T05:57:55;22.92;;;11.20;;
51298;SDS011;37382;45.192;9.790;2023-06-22T06:00:23;29.42;;;11.10;;
51298;SDS011;37382;45.192;9.790;2023-06-22T06:02:51;21.95;;;11.27;;
51298;SDS011;37382;45.192;9.790;2023-06-22T06:05:18;30.58;;;11.18;;
51298;SDS011;37382;45.192;9.790;2023-06-22T06:07:47;26.38;;;10.57;;
51298;SDS011;37382;45.192;9.790;2023-06-22T06:10:15;23.52;;;9.57;;
51298;SDS011;37382;45.192;9.790;2023-06-22T06:12:43;13.25;;;9.07;;
51298;SDS011;37382;45.192;9.790;2023-06-22T06:15:10;17.58;;;9.40;;
51298;SDS011;37382;45.192;9.790;2023-06-22T06:17:48;15.23;;;9.63;;
51298;SDS011;37382;45.192;9.790;2023-06-22T06:20:21;19.38;;;10.40;;
51298;SDS011;37382;45.192;9.790;2023-06-22T06:22:49;19.27;;;10.10;;
51298;SDS011;37382;45.192;9.790;2023-06-22T06:25:17;23.33;;;9.95;;
51298;SDS011;37382;45.192;9.790;2023-06-22T06:27:47;25.30;;;9.25;;
51298;SDS011;37382;45.192;9.790;2023-06-22T06:30:18;16.83;;;8.20;;
51298;SDS011;37382;45.192;9.790;2023-06-22T06:32:46;18.90;;;8.20;;
51298;SDS011;37382;45.192;9.790;2023-06-22T06:35:14;14.77;;;8.15;;
51298;SDS011;37382;45.192;9.790;2023-06-22T06:40:17;26.88;;;9.45;;
51298;SDS011;37382;45.192;9.790;2023-06-22T06:42:46;19.38;;;9.50;;
51298;SDS011;37382;45.192;9.790;2023-06-22T06:45:20;17.65;;;9.50;;
51298;SDS011;37382;45.192;9.790;2023-06-22T06:47:50;22.45;;;9.38;;
51298;SDS011;37382;45.192;9.790;2023-06-22T06:50:19;18.13;;;10.55;;
51298;SDS011;37382;45.192;9.790;2023-06-22T06:52:47;20.55;;;10.00;;
51298;SDS011;37382;45.192;9.790;2023-06-22T06:55:17;15.07;;;10.15;;
51298;SDS011;37382;45.192;9.790;2023-06-22T06:57:44;24.40;;;10.98;;
51298;SDS011;37382;45.192;9.790;2023-06-22T07:00:15;18.67;;;10.18;;
51298;SDS011;37382;45.192;9.790;2023-06-22T07:02:44;16.00;;;9.85;;
51298;SDS011;37382;45.192;9.790;2023-06-22T07:05:12;17.10;;;8.65;;
51298;SDS011;37382;45.192;9.790;2023-06-22T07:07:41;20.77;;;8.88;;
51298;SDS011;37382;45.192;9.790;2023-06-22T07:10:09;19.98;;;8.63;;
51298;SDS011;37382;45.192;9.790;2023-06-22T07:12:38;20.20;;;8.73;;
51298;SDS011;37382;45.192;9.790;2023-06-22T07:15:07;21.67;;;8.88;;
51298;SDS011;37382;45.192;9.790;2023-06-22T07:17:36;23.95;;;8.80;;
51298;SDS011;37382;45.192;9.790;2023-06-22T07:20:04;15.93;;;8.70;;
51298;SDS011;37382;45.192;9.790;2023-06-22T07:22:37;22.73;;;8.93;;
51298;SDS011;37382;45.192;9.790;2023-06-22T07:25:06;19.33;;;8.18;;
51298;SDS011;37382;45.192;9.790;2023-06-22T07:27:45;17.38;;;8.18;;
51298;SDS011;37382;45.192;9.790;2023-06-22T07:30:23;23.55;;;9.38;;
51298;SDS011;37382;45.192;9.790;2023-06-22T07:32:51;20.73;;;9.80;;
51298;SDS011;37382;45.192;9.790;2023-06-22T07:35:19;15.73;;;8.82;;
51298;SDS011;37382;45.192;9.790;2023-06-22T07:37:46;17.17;;;9.38;;
51298;SDS011;37382;45.192;9.790;2023-06-22T07:40:14;18.45;;;9.82;;
51298;SDS011;37382;45.192;9.790;2023-06-22T07:42:42;20.90;;;10.65;;
51298;SDS011;37382;45.192;9.790;2023-06-22T07:45:09;22.83;;;10.55;;
51298;SDS011;37382;45.192;9.790;2023-06-22T07:47:37;24.45;;;12.00;;
51298;SDS011;37382;45.192;9.790;2023-06-22T07:50:05;25.33;;;12.30;;
51298;SDS011;37382;45.192;9.790;2023-06-22T07:52:33;33.17;;;12.18;;
51298;SDS011;37382;45.192;9.790;2023-06-22T07:55:00;23.23;;;12.50;;
51298;SDS011;37382;45.192;9.790;2023-06-22T07:57:29;22.85;;;12.68;;
51298;SDS011;37382;45.192;9.790;2023-06-22T08:00:02;24.48;;;12.57;;
51298;SDS011;37382;45.192;9.790;2023-06-22T08:02:43;30.20;;;14.13;;
51298;SDS011;37382;45.192;9.790;2023-06-22T08:05:13;18.27;;;11.65;;
51298;SDS011;37382;45.192;9.790;2023-06-22T08:07:48;31.25;;;13.40;;
51298;SDS011;37382;45.192;9.790;2023-06-22T08:10:17;25.33;;;12.00;;
51298;SDS011;37382;45.192;9.790;2023-06-22T08:12:45;26.40;;;13.05;;
51298;SDS011;37382;45.192;9.790;2023-06-22T08:15:12;22.60;;;11.85;;
51298;SDS011;37382;45.192;9.790;2023-06-22T08:17:40;24.33;;;12.70;;
51298;SDS011;37382;45.192;9.790;2023-06-22T08:20:08;20.25;;;12.07;;
51298;SDS011;37382;45.192;9.790;2023-06-22T08:22:40;23.67;;;13.07;;
51298;SDS011;37382;45.192;9.790;2023-06-22T08:25:12;30.02;;;14.70;;
51298;SDS011;37382;45.192;9.790;2023-06-22T08:27:40;33.53;;;15.30;;
51298;SDS011;37382;45.192;9.790;2023-06-22T08:30:13;34.10;;;16.80;;
51298;SDS011;37382;45.192;9.790;2023-06-22T08:32:40;41.10;;;18.42;;
51298;SDS011;37382;45.192;9.790;2023-06-22T08:35:08;26.95;;;17.60;;
51298;SDS011;37382;45.192;9.790;2023-06-22T08:37:36;31.10;;;15.30;;
51298;SDS011;37382;45.192;9.790;2023-06-22T08:40:07;30.02;;;17.77;;
51298;SDS011;37382;45.192;9.790;2023-06-22T08:42:37;35.60;;;17.70;;
51298;SDS011;37382;45.192;9.790;2023-06-22T08:45:07;45.97;;;19.27;;
51298;SDS011;37382;45.192;9.790;2023-06-22T08:47:35;37.15;;;20.42;;
51298;SDS011;37382;45.192;9.790;2023-06-22T08:50:03;36.88;;;18.17;;
51298;SDS011;37382;45.192;9.790;2023-06-22T08:52:31;28.77;;;17.42;;
51298;SDS011;37382;45.192;9.790;2023-06-22T08:54:59;39.10;;;18.25;;
51298;SDS011;37382;45.192;9.790;2023-06-22T08:57:27;36.17;;;17.73;;
51298;SDS011;37382;45.192;9.790;2023-06-22T08:59:55;34.25;;;16.50;;
51298;SDS011;37382;45.192;9.790;2023-06-22T09:02:26;26.58;;;16.00;;
51298;SDS011;37382;45.192;9.790;2023-06-22T09:04:57;31.83;;;15.98;;
51298;SDS011;37382;45.192;9.790;2023-06-22T09:07:26;29.63;;;15.73;;
51298;SDS011;37382;45.192;9.790;2023-06-22T09:09:53;34.42;;;15.50;;
51298;SDS011;37382;45.192;9.790;2023-06-22T09:12:20;22.60;;;13.63;;
51298;SDS011;37382;45.192;9.790;2023-06-22T09:14:52;31.10;;;13.65;;
51298;SDS011;37382;45.192;9.790;2023-06-22T09:17:21;35.08;;;15.82;;
51298;SDS011;37382;45.192;9.790;2023-06-22T09:19:49;36.03;;;16.73;;
51298;SDS011;37382;45.192;9.790;2023-06-22T09:22:18;27.02;;;14.93;;
51298;SDS011;37382;45.192;9.790;2023-06-22T09:24:45;25.60;;;14.63;;
51298;SDS011;37382;45.192;9.790;2023-06-22T09:27:12;33.80;;;14.45;;
51298;SDS011;37382;45.192;9.790;2023-06-22T09:29:40;30.40;;;12.30;;
51298;SDS011;37382;45.192;9.790;2023-06-22T09:32:08;26.92;;;11.82;;
51298;SDS011;37382;45.192;9.790;2023-06-22T09:34:36;34.92;;;11.20;;
51298;SDS011;37382;45.192;9.790;2023-06-22T09:37:04;20.23;;;10.35;;
51298;SDS011;37382;45.192;9.790;2023-06-22T09:39:32;24.90;;;10.02;;
51298;SDS011;37382;45.192;9.790;2023-06-22T09:41:59;22.20;;;8.38;;
51298;SDS011;37382;45.192;9.790;2023-06-22T09:44:29;22.92;;;9.40;;
51298;SDS011;37382;45.192;9.790;2023-06-22T09:46:57;28.35;;;9.60;;
51298;SDS011;37382;45.192;9.790;2023-06-22T09:49:25;22.42;;;9.90;;
51298;SDS011;37382;45.192;9.790;2023-06-22T09:52:12;24.42;;;11.27;;
51298;SDS011;37382;45.192;9.790;2023-06-22T09:54:40;21.63;;;8.43;;
51298;SDS011;37382;45.192;9.790;2023-06-22T09:57:08;23.70;;;8.75;;
51298;SDS011;37382;45.192;9.790;2023-06-22T09:59:35;26.67;;;9.60;;
51298;SDS011;37382;45.192;9.790;2023-06-22T10:02:03;23.08;;;9.32;;
51298;SDS011;37382;45.192;9.790;2023-06-22T10:04:31;24.75;;;8.65;;
51298;SDS011;37382;45.192;9.790;2023-06-22T10:06:59;14.15;;;8.93;;
51298;SDS011;37382;45.192;9.790;2023-06-22T10:09:28;22.55;;;8.32;;
51298;SDS011;37382;45.192;9.790;2023-06-22T10:11:55;20.77;;;8.95;;
51298;SDS011;37382;45.192;9.790;2023-06-22T10:14:23;18.15;;;8.50;;
51298;SDS011;37382;45.192;9.790;2023-06-22T10:16:52;22.42;;;8.18;;
51298;SDS011;37382;45.192;9.790;2023-06-22T10:19:20;17.67;;;7.82;;
51298;SDS011;37382;45.192;9.790;2023-06-22T10:21:47;19.75;;;7.95;;
51298;SDS011;37382;45.192;9.790;2023-06-22T10:24:14;22.48;;;8.25;;
51298;SDS011;37382;45.192;9.790;2023-06-22T10:26:42;23.30;;;8.27;;
51298;SDS011;37382;45.192;9.790;2023-06-22T10:29:10;25.27;;;10.38;;
51298;SDS011;37382;45.192;9.790;2023-06-22T10:31:43;30.92;;;9.40;;
51298;SDS011;37382;45.192;9.790;2023-06-22T10:34:10;22.55;;;9.07;;
51298;SDS011;37382;45.192;9.790;2023-06-22T10:36:38;23.13;;;9.02;;
51298;SDS011;37382;45.192;9.790;2023-06-22T10:39:06;17.58;;;8.88;;
51298;SDS011;37382;45.192;9.790;2023-06-22T10:41:34;15.68;;;8.32;;
51298;SDS011;37382;45.192;9.790;2023-06-22T10:44:03;25.77;;;9.88;;
51298;SDS011;37382;45.192;9.790;2023-06-22T10:46:30;23.92;;;10.63;;
51298;SDS011;37382;45.192;9.790;2023-06-22T10:48:58;17.27;;;8.65;;
51298;SDS011;37382;45.192;9.790;2023-06-22T10:51:26;19.90;;;9.63;;
51298;SDS011;37382;45.192;9.790;2023-06-22T10:53:55;25.10;;;8.90;;
51298;SDS011;37382;45.192;9.790;2023-06-22T10:56:22;27.02;;;7.80;;
51298;SDS011;37382;45.192;9.790;2023-06-22T10:58:50;19.27;;;8.23;;
51298;SDS011;37382;45.192;9.790;2023-06-22T11:01:17;24.45;;;7.85;;
51298;SDS011;37382;45.192;9.790;2023-06-22T11:04:01;19.20;;;7.35;;
51298;SDS011;37382;45.192;9.790;2023-06-22T11:06:29;19.52;;;7.13;;
51298;SDS011;37382;45.192;9.790;2023-06-22T11:08:56;12.75;;;6.38;;
51298;SDS011;37382;45.192;9.790;2023-06-22T11:11:43;11.57;;;5.72;;
51298;SDS011;37382;45.192;9.790;2023-06-22T11:14:11;16.35;;;5.35;;
51298;SDS011;37382;45.192;9.790;2023-06-22T11:16:39;16.45;;;5.57;;
51298;SDS011;37382;45.192;9.790;2023-06-22T11:19:06;14.30;;;6.38;;
51298;SDS011;37382;45.192;9.790;2023-06-22T11:21:34;13.75;;;6.15;;
51298;SDS011;37382;45.192;9.790;2023-06-22T11:24:02;17.23;;;6.28;;
51298;SDS011;37382;45.192;9.790;2023-06-22T11:26:30;23.92;;;7.90;;
51298;SDS011;37382;45.192;9.790;2023-06-22T11:28:58;21.55;;;7.60;;
51298;SDS011;37382;45.192;9.790;2023-06-22T11:31:27;15.15;;;7.65;;
51298;SDS011;37382;45.192;9.790;2023-06-22T11:33:54;16.75;;;8.43;;
51298;SDS011;37382;45.192;9.790;2023-06-22T11:36:21;15.63;;;7.60;;
51298;SDS011;37382;45.192;9.790;2023-06-22T11:38:49;22.45;;;7.68;;
51298;SDS011;37382;45.192;9.790;2023-06-22T11:41:18;27.02;;;8.43;;
51298;SDS011;37382;45.192;9.790;2023-06-22T11:43:46;17.15;;;8.15;;
51298;SDS011;37382;45.192;9.790;2023-06-22T11:46:14;16.55;;;8.23;;
51298;SDS011;37382;45.192;9.790;2023-06-22T11:48:41;17.20;;;6.68;;
51298;SDS011;37382;45.192;9.790;2023-06-22T11:51:09;17.45;;;6.45;;
51298;SDS011;37382;45.192;9.790;2023-06-22T11:53:36;11.65;;;5.75;;
51298;SDS011;37382;45.192;9.790;2023-06-22T11:56:04;9.88;;;5.75;;
51298;SDS011;37382;45.192;9.790;2023-06-22T11:58:33;10.85;;;5.85;;
51298;SDS011;37382;45.192;9.790;2023-06-22T12:01:00;18.40;;;7.22;;
51298;SDS011;37382;45.192;9.790;2023-06-22T12:03:28;12.75;;;6.78;;
51298;SDS011;37382;45.192;9.790;2023-06-22T12:05:56;20.98;;;6.40;;
51298;SDS011;37382;45.192;9.790;2023-06-22T12:08:23;25.35;;;7.03;;
51298;SDS011;37382;45.192;9.790;2023-06-22T12:10:51;18.23;;;6.82;;
51298;SDS011;37382;45.192;9.790;2023-06-22T12:13:21;16.00;;;7.20;;
51298;SDS011;37382;45.192;9.790;2023-06-22T12:15:48;11.82;;;6.45;;
51298;SDS011;37382;45.192;9.790;2023-06-22T12:18:16;22.10;;;7.03;;
51298;SDS011;37382;45.192;9.790;2023-06-22T12:20:43;17.92;;;6.18;;
51298;SDS011;37382;45.192;9.790;2023-06-22T12:23:11;18.67;;;6.35;;
51298;SDS011;37382;45.192;9.790;2023-06-22T12:25:39;19.13;;;6.53;;
51298;SDS011;37382;45.192;9.790;2023-06-22T12:28:06;18.45;;;6.85;;
51298;SDS011;37382;45.192;9.790;2023-06-22T12:30:34;51.03;;;8.18;;
51298;SDS011;37382;45.192;9.790;2023-06-22T12:33:02;17.17;;;6.60;;
51298;SDS011;37382;45.192;9.790;2023-06-22T12:35:29;17.90;;;7.80;;
51298;SDS011;37382;45.192;9.790;2023-06-22T12:37:57;24.05;;;7.40;;
51298;SDS011;37382;45.192;9.790;2023-06-22T12:40:24;21.42;;;7.00;;
51298;SDS011;37382;45.192;9.790;2023-06-22T12:42:51;20.58;;;6.43;;
51298;SDS011;37382;45.192;9.790;2023-06-22T12:45:19;17.83;;;7.03;;
51298;SDS011;37382;45.192;9.790;2023-06-22T12:47:48;20.20;;;6.90;;
51298;SDS011;37382;45.192;9.790;2023-06-22T12:50:17;12.40;;;6.38;;
51298;SDS011;37382;45.192;9.790;2023-06-22T12:52:44;19.35;;;6.38;;
51298;SDS011;37382;45.192;9.790;2023-06-22T12:55:12;32.03;;;6.93;;
51298;SDS011;37382;45.192;9.790;2023-06-22T12:57:40;18.60;;;6.72;;
51298;SDS011;37382;45.192;9.790;2023-06-22T13:00:08;35.50;;;7.20;;
51298;SDS011;37382;45.192;9.790;2023-06-22T13:02:37;19.02;;;6.82;;
51298;SDS011;37382;45.192;9.790;2023-06-22T13:05:05;19.02;;;7.30;;
51298;SDS011;37382;45.192;9.790;2023-06-22T13:07:33;20.40;;;6.47;;
51298;SDS011;37382;45.192;9.790;2023-06-22T13:10:01;12.40;;;6.22;;
51298;SDS011;37382;45.192;9.790;2023-06-22T13:12:30;19.63;;;6.78;;
51298;SDS011;37382;45.192;9.790;2023-06-22T13:14:58;15.90;;;6.40;;
51298;SDS011;37382;45.192;9.790;2023-06-22T13:17:26;41.92;;;7.20;;
51298;SDS011;37382;45.192;9.790;2023-06-22T13:19:53;20.98;;;6.82;;
51298;SDS011;37382;45.192;9.790;2023-06-22T13:22:28;30.92;;;7.75;;
51298;SDS011;37382;45.192;9.790;2023-06-22T13:24:56;16.15;;;7.05;;
51298;SDS011;37382;45.192;9.790;2023-06-22T13:27:24;18.08;;;7.88;;
51298;SDS011;37382;45.192;9.790;2023-06-22T13:29:52;27.52;;;7.75;;
51298;SDS011;37382;45.192;9.790;2023-06-22T13:32:20;32.55;;;7.55;;
51298;SDS011;37382;45.192;9.790;2023-06-22T13:34:48;38.50;;;7.20;;
51298;SDS011;37382;45.192;9.790;2023-06-22T13:37:15;20.65;;;7.30;;
51298;SDS011;37382;45.192;9.790;2023-06-22T13:39:43;23.95;;;7.78;;
51298;SDS011;37382;45.192;9.790;2023-06-22T13:42:10;17.00;;;7.32;;
51298;SDS011;37382;45.192;9.790;2023-06-22T13:44:37;17.13;;;7.18;;
51298;SDS011;37382;45.192;9.790;2023-06-22T13:47:05;16.63;;;7.18;;
51298;SDS011;37382;45.192;9.790;2023-06-22T13:49:34;19.40;;;7.40;;
51298;SDS011;37382;45.192;9.790;2023-06-22T13:52:02;15.13;;;6.68;;
51298;SDS011;37382;45.192;9.790;2023-06-22T13:54:31;26.58;;;8.70;;
51298;SDS011;37382;45.192;9.790;2023-06-22T13:57:03;17.98;;;7.50;;
51298;SDS011;37382;45.192;9.790;2023-06-22T13:59:30;21.30;;;8.02;;
51298;SDS011;37382;45.192;9.790;2023-06-22T14:01:58;27.75;;;7.63;;
51298;SDS011;37382;45.192;9.790;2023-06-22T14:04:25;21.25;;;7.30;;
51298;SDS011;37382;45.192;9.790;2023-06-22T14:06:53;21.33;;;7.90;;
51298;SDS011;37382;45.192;9.790;2023-06-22T14:09:24;16.57;;;7.93;;
51298;SDS011;37382;45.192;9.790;2023-06-22T14:11:51;20.38;;;7.10;;
51298;SDS011;37382;45.192;9.790;2023-06-22T14:14:21;15.63;;;7.30;;
51298;SDS011;37382;45.192;9.790;2023-06-22T14:16:49;20.60;;;8.70;;
51298;SDS011;37382;45.192;9.790;2023-06-22T14:19:17;17.50;;;7.22;;
51298;SDS011;37382;45.192;9.790;2023-06-22T14:21:45;18.98;;;7.60;;
51298;SDS011;37382;45.192;9.790;2023-06-22T14:24:13;15.38;;;7.10;;
51298;SDS011;37382;45.192;9.790;2023-06-22T14:26:40;22.05;;;7.10;;
51298;SDS011;37382;45.192;9.790;2023-06-22T14:29:08;23.52;;;6.10;;
51298;SDS011;37382;45.192;9.790;2023-06-22T14:31:36;28.42;;;6.35;;
51298;SDS011;37382;45.192;9.790;2023-06-22T14:34:03;18.27;;;5.47;;
51298;SDS011;37382;45.192;9.790;2023-06-22T14:36:33;18.38;;;5.80;;
51298;SDS011;37382;45.192;9.790;2023-06-22T14:39:01;14.93;;;5.68;;
51298;SDS011;37382;45.192;9.790;2023-06-22T14:41:29;16.88;;;5.38;;
51298;SDS011;37382;45.192;9.790;2023-06-22T14:43:57;20.50;;;4.95;;
51298;SDS011;37382;45.192;9.790;2023-06-22T14:46:25;14.55;;;5.20;;